Time;durP1;ratioP1;P1;durP2;ratioP2;P2;SDS_P1;SDS_P2;PMS_P1;PMS_P2;Temp;Humidity;BMP_temperature;BMP_pressure;BME280_temperature;BME280_humidity;BME280_pressure;Samples;Min_cycle;Max_cycle;Signal;HPM_P1;HPM_P2
2022/02/02 05:06:28;;;;;;;8.50;3.33;;;7.40;99.90;;;;;;4997988;28;20477;-68
2022/02/02 05:09:05;;;;;;;8.63;3.83;;;7.40;99.90;;;;;;4997520;28;20448;-68
2022/02/02 05:17:13;;;;;;;10.40;3.80;;;7.30;99.90;;;;;;4997509;28;20449;-68
2022/02/02 05:20:16;;;;;;;16.50;5.60;;;7.30;99.90;;;;;;4997712;28;20438;-68
2022/02/02 05:26:43;;;;;;;13.70;4.00;;;7.40;99.90;;;;;;4997230;28;20436;-68
2022/02/02 05:51:10;;;;;;;11.20;3.33;;;7.40;99.90;;;;;;4997113;28;20449;-67
2022/02/02 05:53:36;;;;;;;13.20;3.83;;;7.40;99.90;;;;;;4996881;28;20509;-67
2022/02/02 05:56:06;;;;;;;11.63;4.00;;;7.40;99.90;;;;;;5003520;28;20522;-67
2022/02/02 05:58:37;;;;;;;16.90;5.23;;;7.40;99.90;;;;;;5004070;28;20454;-66
2022/02/02 06:01:05;;;;;;;11.67;3.27;;;7.40;99.90;;;;;;4999502;28;20568;-66
2022/02/02 06:03:43;;;;;;;7.87;3.17;;;7.50;99.90;;;;;;4996548;28;20453;-66
2022/02/02 06:06:12;;;;;;;14.20;3.93;;;7.70;99.90;;;;;;4996193;28;20956;-67
2022/02/02 06:08:43;;;;;;;9.07;3.43;;;7.80;99.90;;;;;;4996269;28;20552;-66
2022/02/02 06:11:13;;;;;;;10.23;3.17;;;7.90;99.90;;;;;;4996739;28;20477;-66
2022/02/02 06:13:43;;;;;;;9.20;3.80;;;8.00;99.90;;;;;;4996266;28;20460;-66
2022/02/02 06:16:10;;;;;;;12.13;4.37;;;8.10;99.90;;;;;;4996528;28;20509;-66
2022/02/02 06:18:38;;;;;;;10.90;3.50;;;8.30;99.90;;;;;;4996622;28;20799;-67
2022/02/02 06:21:07;;;;;;;11.67;3.60;;;8.40;99.90;;;;;;4996795;28;20840;-67
2022/02/02 06:23:38;;;;;;;13.67;4.50;;;8.30;99.90;;;;;;4997233;28;20481;-67
2022/02/02 06:26:10;;;;;;;12.27;3.97;;;8.20;99.90;;;;;;4996738;28;20468;-67
2022/02/02 06:28:37;;;;;;;12.43;4.23;;;8.10;99.90;;;;;;4996632;28;20443;-67
2022/02/02 06:31:05;;;;;;;8.23;4.50;;;8.00;99.90;;;;;;4995898;28;20492;-67
2022/02/02 06:33:34;;;;;;;14.10;4.77;;;7.90;99.90;;;;;;4996159;28;21048;-66
2022/02/02 06:36:02;;;;;;;8.50;3.43;;;7.90;99.90;;;;;;4996075;28;20454;-68
2022/02/02 06:38:30;;;;;;;10.90;3.97;;;7.80;99.90;;;;;;5001492;28;20461;-67
2022/02/02 06:41:00;;;;;;;22.63;4.57;;;7.80;99.90;;;;;;4997506;28;20568;-69
2022/02/02 06:43:28;;;;;;;10.43;3.63;;;7.80;99.90;;;;;;4996107;28;20820;-67
2022/02/02 06:45:57;;;;;;;13.67;5.80;;;7.80;99.90;;;;;;4995199;28;20469;-67
2022/02/02 06:48:24;;;;;;;8.13;3.40;;;7.70;99.90;;;;;;4995474;28;20514;-67
2022/02/02 06:51:00;;;;;;;19.57;4.30;;;7.80;99.90;;;;;;4995500;28;20481;-67
2022/02/02 06:53:37;;;;;;;13.10;4.10;;;7.80;99.90;;;;;;4995242;28;20449;-67
2022/02/02 06:56:15;;;;;;;14.50;5.30;;;7.80;99.90;;;;;;4994859;28;20913;-67
2022/02/02 06:59:02;;;;;;;13.57;4.30;;;7.80;99.90;;;;;;4995132;28;20508;-67
2022/02/02 07:01:44;;;;;;;9.93;3.50;;;7.70;99.90;;;;;;4994986;28;20474;-67
2022/02/02 07:04:25;;;;;;;13.67;4.47;;;7.70;99.90;;;;;;4995143;28;20885;-66
2022/02/02 07:07:01;;;;;;;11.93;4.17;;;7.70;99.90;;;;;;4995591;28;20661;-67
2022/02/02 07:09:47;;;;;;;12.50;4.43;;;7.80;99.90;;;;;;4999908;28;20440;-67
2022/02/02 07:12:30;;;;;;;10.87;5.07;;;7.90;99.90;;;;;;4999875;28;20817;-67
2022/02/02 07:15:15;;;;;;;17.30;4.60;;;8.20;99.90;;;;;;4999095;28;20442;-68
2022/02/02 07:17:50;;;;;;;11.13;3.70;;;8.40;99.90;;;;;;4999270;28;20635;-68
2022/02/02 07:20:26;;;;;;;19.50;4.90;;;8.50;99.90;;;;;;4999668;28;20445;-68
2022/02/02 07:23:20;;;;;;;9.80;4.10;;;8.70;99.90;;;;;;4999508;28;20493;-67
2022/02/02 07:28:56;;;;;;;13.63;4.40;;;8.80;99.90;;;;;;5016757;28;20442;-68
2022/02/02 07:31:36;;;;;;;13.10;3.80;;;8.80;99.90;;;;;;5009474;28;20484;-67
2022/02/02 07:34:24;;;;;;;14.17;5.67;;;8.80;99.90;;;;;;5000890;28;20433;-68
2022/02/02 07:36:56;;;;;;;13.70;4.20;;;8.80;99.90;;;;;;5000628;28;20449;-67
2022/02/02 07:39:25;;;;;;;8.17;4.57;;;8.80;99.90;;;;;;5000402;28;20537;-67
2022/02/02 07:41:59;;;;;;;13.13;4.03;;;8.80;99.90;;;;;;5000254;28;20470;-67
2022/02/02 07:44:31;;;;;;;10.40;3.53;;;8.90;99.90;;;;;;4999529;28;20438;-68
2022/02/02 07:47:04;;;;;;;10.33;4.20;;;9.10;99.90;;;;;;4999130;28;20804;-68
2022/02/02 07:49:35;;;;;;;11.67;3.77;;;9.10;99.90;;;;;;5003027;28;20518;-68
2022/02/02 07:52:02;;;;;;;7.33;4.07;;;9.00;99.90;;;;;;5008425;28;20984;-68
2022/02/02 07:54:33;;;;;;;10.37;3.67;;;9.00;99.90;;;;;;5010047;28;20467;-68
2022/02/02 07:57:05;;;;;;;10.53;3.80;;;8.90;99.90;;;;;;5005464;28;21029;-67
2022/02/02 07:59:42;;;;;;;9.80;4.47;;;9.00;99.90;;;;;;4998565;28;20444;-68
2022/02/02 08:02:09;;;;;;;11.77;4.37;;;9.00;99.90;;;;;;5003587;28;20481;-68
2022/02/02 08:04:36;;;;;;;7.80;4.03;;;9.10;99.90;;;;;;5000214;28;20454;-68
2022/02/02 08:07:04;;;;;;;9.47;4.07;;;9.20;99.90;;;;;;5000510;28;20505;-68
2022/02/02 08:09:36;;;;;;;14.30;4.27;;;9.20;99.90;;;;;;5000589;28;20450;-68
2022/02/02 08:12:03;;;;;;;9.13;4.10;;;9.20;99.90;;;;;;4999031;28;20506;-68
2022/02/02 08:14:32;;;;;;;16.77;4.63;;;9.10;99.90;;;;;;4999840;28;20458;-68
2022/02/02 08:17:00;;;;;;;10.57;5.27;;;8.90;99.90;;;;;;4998633;28;20460;-67
2022/02/02 08:19:27;;;;;;;12.40;4.40;;;8.80;99.90;;;;;;4997990;28;20469;-67
2022/02/02 08:21:54;;;;;;;15.93;5.07;;;8.70;99.90;;;;;;4998393;28;20978;-68
2022/02/02 08:24:22;;;;;;;14.47;4.47;;;8.60;99.90;;;;;;4998600;28;20454;-67
2022/02/02 08:26:49;;;;;;;11.10;3.63;;;8.50;99.90;;;;;;4999412;28;20824;-67
2022/02/02 08:29:16;;;;;;;15.63;4.03;;;8.40;99.90;;;;;;4998241;28;20898;-66
2022/02/02 08:31:43;;;;;;;16.13;5.17;;;8.40;99.90;;;;;;4997963;28;20485;-67
2022/02/02 08:34:13;;;;;;;12.47;3.80;;;8.40;99.90;;;;;;4998428;28;20540;-67
2022/02/02 08:36:42;;;;;;;15.77;4.10;;;8.50;99.90;;;;;;4998313;28;20460;-67
2022/02/02 08:39:19;;;;;;;13.87;4.63;;;8.50;99.90;;;;;;4997960;28;20960;-68
2022/02/02 08:41:49;;;;;;;11.70;4.00;;;8.50;99.90;;;;;;4998704;28;20962;-67
2022/02/02 08:44:20;;;;;;;13.90;5.20;;;8.50;99.90;;;;;;4997956;28;20492;-68
2022/02/02 08:46:55;;;;;;;15.63;6.37;;;8.50;99.90;;;;;;4998388;28;20450;-68
2022/02/02 08:49:24;;;;;;;10.97;4.20;;;8.50;99.90;;;;;;4998043;28;20446;-68
2022/02/02 08:51:50;;;;;;;12.43;4.67;;;8.60;99.90;;;;;;4998167;28;20486;-68
2022/02/02 08:54:26;;;;;;;13.13;4.67;;;8.60;99.90;;;;;;4998004;28;20456;-68
2022/02/02 08:59:47;;;;;;;13.40;4.57;;;8.60;99.90;;;;;;4999650;28;20502;-68
2022/02/02 09:02:18;;;;;;;16.03;5.20;;;8.60;99.90;;;;;;5004852;28;21003;-68
2022/02/02 09:07:32;;;;;;;9.63;4.63;;;8.60;99.90;;;;;;4997603;28;20424;-69
2022/02/02 09:10:03;;;;;;;11.00;4.63;;;8.60;99.90;;;;;;4997916;28;20450;-68
2022/02/02 09:21:44;;;;;;;13.17;4.00;;;9.10;99.90;;;;;;4997533;28;20533;-68
2022/02/02 09:24:02;;;;;;;16.13;4.20;;;9.20;99.90;;;;;;4997428;28;20538;-68
2022/02/02 09:32:25;;;;;;;15.07;4.80;;;9.70;99.90;;;;;;4997336;28;20524;-68
2022/02/02 09:34:54;;;;;;;12.13;3.67;;;9.70;99.90;;;;;;4997455;28;20453;-68
2022/02/02 09:37:24;;;;;;;10.63;4.90;;;9.70;99.90;;;;;;4997679;28;20478;-68
2022/02/02 09:40:00;;;;;;;14.20;4.33;;;9.70;99.90;;;;;;4997193;28;20458;-69
2022/02/02 09:42:31;;;;;;;15.37;3.23;;;9.80;99.90;;;;;;4997165;28;20477;-68
2022/02/02 09:45:01;;;;;;;13.63;3.70;;;10.80;99.90;;;;;;4997361;28;20527;-68
2022/02/02 09:47:33;;;;;;;9.37;3.97;;;12.00;99.90;;;;;;4996507;28;20457;-68
2022/02/02 09:50:10;;;;;;;12.00;4.33;;;13.20;99.90;;;;;;4996972;28;20449;-67
2022/02/02 09:52:42;;;;;;;11.73;4.23;;;14.40;99.90;;;;;;5008426;28;20489;-68
2022/02/02 09:55:14;;;;;;;12.67;4.40;;;15.00;99.90;;;;;;5012429;28;20462;-69
2022/02/02 09:58:19;;;;;;;9.40;3.63;;;15.20;99.90;;;;;;5012208;28;20442;-69
2022/02/02 10:00:58;;;;;;;11.20;4.43;;;15.40;99.90;;;;;;5008183;28;20469;-69
2022/02/02 10:06:16;;;;;;;15.23;4.43;;;14.00;99.90;;;;;;4997068;28;20468;-68
2022/02/02 10:09:08;;;;;;;10.80;4.30;;;13.30;99.90;;;;;;4996976;28;20999;-69
2022/02/02 10:12:03;;;;;;;16.43;5.33;;;12.70;99.90;;;;;;4997021;28;20568;-68
2022/02/02 10:14:36;;;;;;;13.53;4.77;;;12.50;99.90;;;;;;4997370;28;20448;-68
2022/02/02 10:17:09;;;;;;;17.67;5.17;;;11.90;99.90;;;;;;4996834;28;20820;-68
2022/02/02 10:19:37;;;;;;;17.00;4.93;;;11.50;99.90;;;;;;4997225;28;20442;-69
2022/02/02 10:22:25;;;;;;;14.50;4.60;;;11.10;99.90;;;;;;4999285;28;20473;-69
2022/02/02 10:24:55;;;;;;;10.70;3.30;;;11.00;99.90;;;;;;4997676;28;20439;-69
2022/02/02 10:27:32;;;;;;;10.00;3.77;;;11.40;99.90;;;;;;4997739;28;20440;-68
2022/02/02 10:30:06;;;;;;;9.70;3.40;;;11.30;99.90;;;;;;4999437;28;20441;-69
2022/02/02 10:32:38;;;;;;;14.63;4.83;;;11.20;99.90;;;;;;5005191;28;20511;-68
2022/02/02 10:35:07;;;;;;;15.67;4.33;;;10.90;99.90;;;;;;5017449;28;20489;-68
2022/02/02 10:37:36;;;;;;;11.00;4.10;;;10.70;99.90;;;;;;5016213;28;20452;-68
2022/02/02 10:40:06;;;;;;;11.23;4.13;;;10.50;99.90;;;;;;5015674;28;20464;-68
2022/02/02 10:42:38;;;;;;;15.60;4.33;;;10.60;99.90;;;;;;5015790;28;20484;-68
2022/02/02 10:45:19;;;;;;;10.50;3.40;;;10.50;99.90;;;;;;5017555;28;20439;-68
2022/02/02 10:47:48;;;;;;;11.20;5.30;;;10.30;99.90;;;;;;5018237;28;20449;-68
2022/02/02 10:50:21;;;;;;;10.10;3.53;;;10.30;99.90;;;;;;5017911;28;20513;-68
2022/02/02 10:53:15;;;;;;;11.57;4.23;;;10.30;99.90;;;;;;5018024;28;20463;-68
2022/02/02 10:56:01;;;;;;;11.37;4.60;;;10.20;99.90;;;;;;5017558;28;20435;-69
2022/02/02 10:58:51;;;;;;;13.90;5.17;;;10.30;99.90;;;;;;5005378;28;20498;-68
2022/02/02 11:01:32;;;;;;;15.50;4.50;;;10.30;99.90;;;;;;4996034;28;20567;-69
2022/02/02 11:06:44;;;;;;;16.97;4.97;;;10.80;99.90;;;;;;4996854;28;20550;-68
2022/02/02 11:09:13;;;;;;;16.70;5.50;;;10.80;99.90;;;;;;4996027;28;20465;-68
2022/02/02 11:11:42;;;;;;;14.37;4.67;;;10.70;99.90;;;;;;4996551;28;20833;-68
2022/02/02 11:14:25;;;;;;;16.63;5.40;;;10.40;99.90;;;;;;4996640;28;20463;-67
2022/02/02 11:16:58;;;;;;;15.47;4.53;;;10.30;99.90;;;;;;4996362;28;20909;-68
2022/02/02 11:19:31;;;;;;;14.07;4.70;;;10.30;99.90;;;;;;4997409;28;20445;-68
2022/02/02 11:22:20;;;;;;;11.33;3.60;;;10.20;99.90;;;;;;4996565;28;20478;-69
2022/02/02 11:24:47;;;;;;;13.50;4.20;;;10.30;99.90;;;;;;4996465;28;20445;-68
2022/02/02 11:27:34;;;;;;;11.87;3.87;;;10.30;99.90;;;;;;4996434;28;20906;-68
2022/02/02 11:30:01;;;;;;;14.90;3.90;;;10.30;99.90;;;;;;4997251;28;20463;-68
2022/02/02 11:32:41;;;;;;;16.73;4.60;;;10.40;99.90;;;;;;4997059;28;20499;-68
2022/02/02 11:35:27;;;;;;;18.13;4.23;;;10.50;99.90;;;;;;4996196;28;20913;-68
2022/02/02 11:37:56;;;;;;;14.77;4.00;;;10.50;99.90;;;;;;4996283;28;20527;-68
2022/02/02 11:40:23;;;;;;;15.70;4.37;;;10.50;99.90;;;;;;4997575;28;20457;-69
2022/02/02 11:42:56;;;;;;;18.07;3.80;;;10.50;99.90;;;;;;4996380;28;20455;-68
2022/02/02 11:45:51;;;;;;;15.10;3.77;;;10.40;99.90;;;;;;4998761;28;20762;-68
2022/02/02 11:48:57;;;;;;;12.10;4.80;;;10.50;99.90;;;;;;4996125;28;20436;-68
2022/02/02 11:51:40;;;;;;;15.83;4.67;;;10.60;99.90;;;;;;4995337;28;20481;-68
2022/02/02 11:54:08;;;;;;;16.00;4.00;;;10.70;99.90;;;;;;4997645;28;20477;-68
2022/02/02 11:57:12;;;;;;;12.33;3.87;;;10.80;99.90;;;;;;4999171;28;20463;-68
2022/02/02 12:00:07;;;;;;;12.27;3.90;;;10.80;99.90;;;;;;4999518;28;20439;-68
2022/02/02 12:02:50;;;;;;;11.20;3.80;;;10.70;99.90;;;;;;4999055;28;20888;-67
2022/02/02 12:05:27;;;;;;;13.67;4.37;;;10.60;99.90;;;;;;5003646;28;20466;-68
2022/02/02 12:08:03;;;;;;;12.47;3.70;;;10.50;99.90;;;;;;5001560;28;20442;-68
2022/02/02 12:10:54;;;;;;;16.63;3.90;;;10.40;99.90;;;;;;4999061;28;20439;-68
2022/02/02 12:45:11;;;;;;;7.77;3.93;;;10.40;99.90;;;;;;4998651;28;20443;-68
2022/02/02 12:47:51;;;;;;;13.17;3.10;;;10.50;99.90;;;;;;4997894;28;20448;-68
2022/02/02 12:59:23;;;;;;;8.63;3.10;;;10.40;99.90;;;;;;5016383;28;20505;-68
2022/02/02 13:02:03;;;;;;;8.90;3.37;;;10.40;99.90;;;;;;5014587;28;20472;-68
2022/02/02 13:04:31;;;;;;;11.03;3.53;;;10.30;99.90;;;;;;5012565;28;20506;-68
2022/02/02 13:07:12;;;;;;;13.13;4.30;;;10.20;99.90;;;;;;5012004;28;20463;-69
2022/02/02 13:09:41;;;;;;;10.30;3.90;;;10.20;99.90;;;;;;5014676;28;20438;-69
2022/02/02 13:12:24;;;;;;;15.37;4.97;;;10.00;99.90;;;;;;5015501;28;20450;-69
2022/02/02 13:15:11;;;;;;;10.20;4.10;;;9.80;99.90;;;;;;5015340;28;20533;-69
2022/02/02 13:20:53;;;;;;;6.50;3.63;;;9.60;99.90;;;;;;5011907;28;20533;-69
2022/02/02 13:23:28;;;;;;;9.40;3.40;;;9.30;99.90;;;;;;4997195;28;20952;-68
2022/02/02 13:25:59;;;;;;;12.70;3.40;;;9.30;99.90;;;;;;4997269;28;20449;-69
2022/02/02 13:28:43;;;;;;;10.00;3.67;;;9.30;99.90;;;;;;4997014;28;20446;-68
2022/02/02 13:31:31;;;;;;;15.90;3.70;;;9.30;99.90;;;;;;4997303;28;20482;-69
2022/02/02 13:34:15;;;;;;;10.33;3.60;;;9.40;99.90;;;;;;5000553;28;20884;-69
2022/02/02 13:36:57;;;;;;;13.40;3.90;;;9.60;99.90;;;;;;5004470;28;20441;-69
2022/02/02 13:42:45;;;;;;;10.87;3.97;;;10.00;99.90;;;;;;4996731;28;20570;-69
2022/02/02 13:48:11;;;;;;;15.10;4.60;;;9.90;99.90;;;;;;4996437;28;20439;-69
2022/02/02 13:53:57;;;;;;;11.63;3.93;;;10.10;99.90;;;;;;4994355;28;20512;-69
2022/02/02 13:59:58;;;;;;;13.00;4.40;;;10.20;99.90;;;;;;5133789;27;20515;-69
2022/02/02 14:05:26;;;;;;;12.50;4.10;;;10.50;99.90;;;;;;5133196;28;21063;-69
2022/02/02 14:08:12;;;;;;;9.90;4.07;;;10.60;99.90;;;;;;5133542;27;20896;-69
2022/02/02 14:10:59;;;;;;;13.90;4.07;;;10.60;99.90;;;;;;5132490;27;20562;-69
2022/02/02 14:32:38;;;;;;;8.33;3.90;;;10.80;99.90;;;;;;5132702;28;20538;-69
2022/02/02 14:35:05;;;;;;;8.70;3.47;;;11.00;99.90;;;;;;5132529;27;20462;-69
2022/02/02 14:37:40;;;;;;;11.00;3.70;;;11.20;99.90;;;;;;5132780;27;20473;-69
2022/02/02 14:40:16;;;;;;;9.27;4.07;;;11.10;99.90;;;;;;5132509;27;20994;-69
2022/02/02 14:42:46;;;;;;;8.63;4.97;;;11.10;99.90;;;;;;5132157;27;20992;-69
2022/02/02 14:45:17;;;;;;;7.80;3.70;;;11.10;99.90;;;;;;5132333;27;20435;-70
2022/02/02 14:47:49;;;;;;;16.17;4.70;;;11.10;99.90;;;;;;5133600;27;20470;-69
2022/02/02 14:50:22;;;;;;;9.63;4.57;;;11.00;99.90;;;;;;5132531;27;20432;-69
2022/02/02 14:53:00;;;;;;;7.90;3.93;;;11.00;99.90;;;;;;5132587;27;20442;-69
2022/02/02 14:56:01;;;;;;;12.73;4.27;;;11.10;99.90;;;;;;5132386;27;20438;-70
2022/02/02 15:29:11;;;;;;;12.50;5.00;;;9.50;99.90;;;;;;5117809;28;20439;-69
2022/02/02 15:31:38;;;;;;;7.37;3.20;;;9.40;99.90;;;;;;5117627;28;20467;-68
2022/02/02 15:34:10;;;;;;;7.50;3.40;;;9.40;99.90;;;;;;5118578;28;20583;-69
2022/02/02 15:37:09;;;;;;;9.87;3.40;;;9.30;99.90;;;;;;5118640;28;20467;-69
2022/02/02 15:39:36;;;;;;;5.77;2.93;;;9.20;99.90;;;;;;5116933;28;20542;-69
2022/02/02 15:42:20;;;;;;;7.17;3.53;;;9.10;99.90;;;;;;5118560;28;20969;-69
2022/02/02 15:54:42;;;;;;;3.80;2.80;;;9.10;99.90;;;;;;5139387;27;20429;-68
2022/02/02 15:58:57;;;;;;;6.13;3.87;;;8.80;99.90;;;;;;5122510;28;20484;-68
2022/02/02 16:04:12;;;;;;;6.00;3.43;;;8.70;99.90;;;;;;5120635;28;20422;-69
2022/02/02 16:06:39;;;;;;;5.80;3.63;;;8.70;99.90;;;;;;5118067;28;20493;-68
2022/02/02 16:09:20;;;;;;;6.87;3.77;;;8.70;99.90;;;;;;5117637;28;20458;-69
2022/02/02 16:12:03;;;;;;;8.23;4.33;;;8.60;99.90;;;;;;5117656;28;20972;-68
2022/02/02 16:14:33;;;;;;;7.43;3.90;;;8.50;99.90;;;;;;5118199;28;20445;-69
2022/02/02 16:17:14;;;;;;;5.60;3.97;;;8.40;99.90;;;;;;5118387;28;20441;-69
2022/02/02 16:24:42;;;;;;;6.77;4.00;;;8.40;99.90;;;;;;5118281;28;20461;-68
2022/02/02 16:25:31;;;;;;;8.30;4.80;;;8.20;99.90;;;;;;5127258;28;20434;-68
2022/02/02 16:34:19;;;;;;;5.33;3.87;;;8.00;99.90;;;;;;5118264;28;20414;-69
2022/02/02 16:36:30;;;;;;;7.13;4.27;;;7.90;99.90;;;;;;5116152;28;20955;-68
2022/02/02 16:39:01;;;;;;;5.03;3.63;;;7.90;99.90;;;;;;5117564;28;20551;-68
2022/02/02 16:44:13;;;;;;;10.33;4.40;;;7.90;99.90;;;;;;5126581;28;20775;-69
2022/02/02 16:46:40;;;;;;;7.97;4.40;;;7.90;99.90;;;;;;5117007;28;20450;-69
2022/02/02 16:49:08;;;;;;;5.20;4.50;;;7.80;99.90;;;;;;5116444;28;20452;-68
2022/02/02 16:51:35;;;;;;;6.30;4.33;;;7.80;99.90;;;;;;5116627;28;20469;-69
2022/02/02 16:54:04;;;;;;;6.53;4.17;;;7.90;99.90;;;;;;5116410;28;20454;-68
2022/02/02 16:56:43;;;;;;;5.60;3.90;;;7.80;99.90;;;;;;5117018;28;20802;-68
2022/02/02 17:29:48;;;;;;;5.33;4.10;;;8.00;99.90;;;;;;5100788;28;20843;-68
2022/02/02 17:32:27;;;;;;;6.07;4.33;;;8.00;99.90;;;;;;5117724;28;20995;-68
2022/02/02 17:35:04;;;;;;;6.37;5.70;;;7.90;99.90;;;;;;5115969;28;20429;-68
2022/02/02 17:37:44;;;;;;;5.00;3.80;;;7.90;99.90;;;;;;5116850;28;20528;-68
2022/02/02 17:40:15;;;;;;;7.40;4.77;;;7.80;99.90;;;;;;5115589;28;20833;-68
2022/02/02 17:43:05;;;;;;;5.70;5.20;;;7.80;99.90;;;;;;5116488;28;20552;-69
2022/02/02 17:45:43;;;;;;;9.27;5.10;;;7.80;99.90;;;;;;5115624;28;20885;-68
2022/02/02 17:56:53;;;;;;;6.20;4.87;;;7.70;99.90;;;;;;5115627;28;20462;-67
2022/02/02 18:03:16;;;;;;;6.07;5.47;;;7.60;99.90;;;;;;5115388;28;21016;-68
2022/02/02 18:15:13;;;;;;;5.40;4.90;;;7.50;99.90;;;;;;5127637;28;20416;-68
2022/02/02 18:19:40;;;;;;;5.47;4.97;;;7.60;99.90;;;;;;5077910;28;20497;-68
2022/02/02 18:22:06;;;;;;;6.33;5.80;;;7.70;99.90;;;;;;5127360;28;20472;-68
2022/02/02 18:24:43;;;;;;;7.40;5.67;;;7.70;99.90;;;;;;5126706;28;20453;-68
2022/02/02 18:27:17;;;;;;;6.03;5.53;;;7.70;99.90;;;;;;5127767;28;20889;-67
2022/02/02 18:29:53;;;;;;;6.87;6.10;;;7.70;99.90;;;;;;5118381;28;20781;-67
2022/02/02 18:32:35;;;;;;;8.80;5.53;;;7.80;99.90;;;;;;5116682;28;21075;-68
2022/02/02 18:35:05;;;;;;;11.63;6.10;;;7.80;99.90;;;;;;5114862;28;20437;-67
2022/02/02 18:38:25;;;;;;;5.87;5.37;;;7.90;99.90;;;;;;5114846;28;21014;-68
2022/02/02 18:41:28;;;;;;;7.30;6.30;;;7.90;99.90;;;;;;5115571;28;20459;-67
2022/02/02 18:49:00;;;;;;;8.30;5.87;;;7.90;99.90;;;;;;5138681;28;20412;-67
2022/02/02 18:54:23;;;;;;;6.90;5.60;;;7.90;99.90;;;;;;5118818;28;20527;-67
2022/02/02 18:57:04;;;;;;;5.57;5.10;;;7.90;99.90;;;;;;5119064;28;20431;-68
2022/02/02 18:59:49;;;;;;;6.10;5.53;;;7.90;99.90;;;;;;5119088;28;20467;-67
2022/02/02 19:02:36;;;;;;;6.57;6.00;;;7.80;99.90;;;;;;5138459;28;20495;-67
2022/02/02 19:05:21;;;;;;;5.53;4.93;;;7.80;99.90;;;;;;5118087;28;20442;-68
2022/02/02 19:08:03;;;;;;;6.70;5.90;;;7.70;99.90;;;;;;5117920;28;20434;-67
2022/02/02 19:38:21;;;;;;;6.40;5.90;;;7.40;99.90;;;;;;5119706;28;20425;-67
2022/02/02 20:01:45;;;;;;;7.13;6.20;;;7.20;99.90;;;;;;5116506;28;20453;-68
2022/02/02 20:06:02;;;;;;;7.87;7.13;;;7.20;99.90;;;;;;5058809;28;20442;-68
2022/02/02 20:08:39;;;;;;;7.13;6.53;;;7.20;99.90;;;;;;5116660;28;20445;-68
2022/02/02 20:11:08;;;;;;;7.10;6.40;;;7.20;99.90;;;;;;5116477;28;20555;-68
2022/02/02 20:13:39;;;;;;;8.57;7.77;;;7.20;99.90;;;;;;5116322;28;20899;-67
2022/02/02 20:16:06;;;;;;;8.67;7.70;;;7.10;99.90;;;;;;5116132;28;20429;-68
2022/02/02 20:18:37;;;;;;;8.10;7.30;;;7.10;99.90;;;;;;5116271;28;20488;-68
2022/02/02 20:21:07;;;;;;;8.80;6.13;;;7.10;99.90;;;;;;5118129;28;20522;-68
2022/02/02 20:23:39;;;;;;;12.67;11.37;;;7.10;99.90;;;;;;5116454;28;20453;-67
2022/02/02 20:26:07;;;;;;;12.90;9.50;;;7.20;99.90;;;;;;5116348;28;20488;-68
2022/02/02 20:28:35;;;;;;;14.50;12.60;;;7.10;99.90;;;;;;5116244;28;20452;-68
2022/02/02 20:31:02;;;;;;;17.07;13.83;;;7.10;99.90;;;;;;5115988;28;20999;-68
2022/02/02 20:33:29;;;;;;;17.20;13.43;;;7.10;99.90;;;;;;5116216;28;20451;-68
2022/02/02 20:35:56;;;;;;;14.40;12.20;;;7.10;99.90;;;;;;5116241;28;20452;-67
2022/02/02 20:38:23;;;;;;;11.45;10.30;;;7.20;99.90;;;;;;5116868;28;20459;-68
2022/02/02 20:40:49;;;;;;;9.13;8.23;;;7.20;99.90;;;;;;5116281;28;20485;-68
2022/02/02 20:43:27;;;;;;;7.07;6.37;;;7.20;99.90;;;;;;5115809;28;20746;-67
2022/02/02 20:46:11;;;;;;;6.43;5.77;;;7.30;99.90;;;;;;5115818;28;20518;-68
2022/02/02 21:05:39;;;;;;;7.90;7.17;;;7.20;99.90;;;;;;5116527;28;20493;-67
2022/02/02 21:10:48;;;;;;;7.40;6.70;;;7.30;99.90;;;;;;5129771;28;21036;-68
2022/02/02 21:15:59;;;;;;;7.07;6.57;;;7.30;99.90;;;;;;5117444;28;20498;-68
2022/02/02 21:18:33;;;;;;;7.57;6.80;;;7.40;99.90;;;;;;5133039;28;20437;-68
2022/02/02 21:21:04;;;;;;;7.60;6.90;;;7.40;99.90;;;;;;5129616;28;20475;-67
2022/02/02 21:24:05;;;;;;;7.97;7.17;;;7.40;99.90;;;;;;5118184;28;20927;-68
2022/02/02 21:26:48;;;;;;;9.87;8.17;;;7.40;99.90;;;;;;5117512;28;20556;-68
2022/02/02 21:29:15;;;;;;;8.33;7.43;;;7.50;99.90;;;;;;5118049;28;20909;-68
2022/02/02 21:31:42;;;;;;;9.03;6.80;;;7.50;99.90;;;;;;5117531;28;21043;-69
2022/02/02 21:34:10;;;;;;;7.40;6.70;;;7.50;99.90;;;;;;5117394;28;20932;-68
2022/02/02 21:36:37;;;;;;;7.50;6.80;;;7.50;99.90;;;;;;5117909;28;20810;-68
2022/02/02 21:39:06;;;;;;;7.30;6.60;;;7.50;99.90;;;;;;5117652;28;20468;-69
2022/02/02 21:41:35;;;;;;;7.70;6.90;;;7.60;99.90;;;;;;5122414;28;20492;-69
2022/02/02 21:44:02;;;;;;;6.80;6.20;;;7.60;99.90;;;;;;5129920;28;20550;-70
2022/02/02 21:46:29;;;;;;;8.13;6.13;;;7.60;99.90;;;;;;5117809;28;20453;-69
2022/02/02 21:48:59;;;;;;;8.53;7.10;;;7.60;99.90;;;;;;5117593;28;20931;-69
2022/02/02 21:51:31;;;;;;;7.60;6.90;;;7.60;99.90;;;;;;5118404;28;20993;-68
2022/02/02 21:53:57;;;;;;;7.27;6.57;;;7.60;99.90;;;;;;5117567;28;20780;-68
2022/02/02 21:56:24;;;;;;;8.30;7.50;;;7.60;99.90;;;;;;5118341;28;20448;-69
2022/02/02 21:58:51;;;;;;;8.00;7.20;;;7.60;99.90;;;;;;5118909;28;20459;-70
2022/02/02 22:01:18;;;;;;;9.10;7.60;;;7.70;99.90;;;;;;5119254;28;20476;-70
2022/02/02 22:03:45;;;;;;;7.53;6.83;;;7.70;99.90;;;;;;5118691;28;20818;-69
2022/02/02 22:06:12;;;;;;;8.33;7.53;;;7.70;99.90;;;;;;5118732;28;20783;-69
2022/02/02 22:08:41;;;;;;;7.97;7.30;;;7.70;99.90;;;;;;5118064;28;20437;-68
2022/02/02 22:11:09;;;;;;;8.63;7.83;;;7.70;99.90;;;;;;5117453;28;20475;-69
2022/02/02 22:13:39;;;;;;;8.80;8.00;;;7.70;99.90;;;;;;5118616;28;20447;-69
2022/02/02 22:16:10;;;;;;;9.10;8.30;;;7.70;99.90;;;;;;5119088;28;20425;-71
2022/02/02 22:18:38;;;;;;;11.00;7.90;;;7.70;99.90;;;;;;5117979;28;20436;-69
2022/02/02 22:21:05;;;;;;;9.10;8.20;;;7.70;99.90;;;;;;5121715;28;20988;-69
2022/02/02 22:23:35;;;;;;;8.40;7.70;;;7.70;99.90;;;;;;5123291;28;20444;-68
2022/02/02 22:26:03;;;;;;;8.57;7.77;;;7.70;99.90;;;;;;5122929;28;20457;-69
2022/02/02 22:28:30;;;;;;;8.00;7.20;;;7.70;99.90;;;;;;5123908;28;21024;-69
2022/02/02 22:30:57;;;;;;;8.40;7.60;;;7.80;99.90;;;;;;5123965;28;20469;-70
2022/02/02 22:33:24;;;;;;;8.53;7.80;;;7.80;99.90;;;;;;5122834;28;20452;-69
2022/02/02 22:35:51;;;;;;;8.27;7.33;;;7.80;99.90;;;;;;5123555;28;20451;-69
2022/02/02 22:38:19;;;;;;;9.43;8.43;;;7.90;99.90;;;;;;5124075;28;20449;-69
2022/02/02 22:40:46;;;;;;;9.70;8.70;;;7.90;99.90;;;;;;5123465;28;20487;-69
2022/02/02 22:43:14;;;;;;;9.77;8.30;;;7.90;99.90;;;;;;5123157;28;20453;-69
2022/02/02 22:45:44;;;;;;;8.90;8.20;;;7.90;99.90;;;;;;5126833;27;20455;-69
2022/02/02 22:48:14;;;;;;;9.63;8.73;;;7.90;99.90;;;;;;5122070;28;20444;-68
2022/02/02 22:50:41;;;;;;;8.53;7.73;;;8.00;99.90;;;;;;5129287;28;20444;-69
2022/02/02 22:53:08;;;;;;;9.10;8.20;;;8.00;99.90;;;;;;5133260;28;20457;-69
2022/02/02 22:55:35;;;;;;;8.80;8.00;;;8.00;99.90;;;;;;5121847;28;20452;-70
2022/02/02 22:58:02;;;;;;;10.80;8.43;;;8.00;99.90;;;;;;5122013;28;20555;-69
